createdAt,value
2016-08-06T00:00:31.701Z,0
2016-08-06T00:01:31.675Z,0
2016-08-06T00:02:31.685Z,0
2016-08-06T00:03:31.681Z,0
2016-08-06T00:04:31.699Z,0
2016-08-06T00:05:31.697Z,0
2016-08-06T00:06:32.387Z,0
2016-08-06T00:07:31.711Z,0
2016-08-06T00:08:32.391Z,0
2016-08-06T00:09:31.696Z,0
2016-08-06T00:10:31.694Z,0
2016-08-06T00:11:31.700Z,0
2016-08-06T00:12:31.704Z,0
2016-08-06T00:13:31.690Z,0
2016-08-06T00:14:31.689Z,0
2016-08-06T00:15:31.721Z,0
2016-08-06T00:16:31.696Z,0
2016-08-06T00:17:31.691Z,0
2016-08-06T00:18:31.684Z,0
2016-08-06T00:19:31.692Z,0
2016-08-06T00:20:31.785Z,0
2016-08-06T00:21:31.705Z,0
2016-08-06T00:22:31.692Z,0
2016-08-06T00:23:31.716Z,0
2016-08-06T00:24:33.117Z,0
2016-08-06T00:25:31.791Z,0
2016-08-06T00:26:31.697Z,0
2016-08-06T00:27:31.700Z,0
2016-08-06T00:28:31.704Z,0
2016-08-06T00:29:31.704Z,0
2016-08-06T00:30:31.702Z,0
2016-08-06T00:31:31.710Z,0
2016-08-06T00:32:31.706Z,0
2016-08-06T00:33:32.414Z,0
2016-08-06T00:34:31.715Z,0
2016-08-06T00:35:31.708Z,0
2016-08-06T00:36:31.708Z,0
2016-08-06T00:37:31.719Z,0
2016-08-06T00:38:31.724Z,0
2016-08-06T00:39:31.793Z,0
2016-08-06T00:40:31.793Z,0
2016-08-06T00:41:31.707Z,0
2016-08-06T00:42:31.719Z,0
2016-08-06T00:43:31.717Z,0
2016-08-06T00:44:31.721Z,0
2016-08-06T00:45:31.713Z,0
2016-08-06T00:46:31.721Z,0
2016-08-06T00:47:31.712Z,0
2016-08-06T00:48:32.441Z,0
2016-08-06T00:49:31.718Z,0
2016-08-06T00:50:31.767Z,0
2016-08-06T00:51:31.877Z,0
2016-08-06T00:52:31.715Z,0
2016-08-06T00:53:31.723Z,0
2016-08-06T00:54:31.715Z,0
2016-08-06T00:55:31.835Z,0
2016-08-06T00:56:31.719Z,0
2016-08-06T00:57:31.717Z,0
2016-08-06T00:58:32.434Z,0
2016-08-06T00:59:31.725Z,0
2016-08-06T01:00:31.741Z,0
2016-08-06T01:01:31.725Z,0
2016-08-06T01:02:31.719Z,0
2016-08-06T01:03:31.726Z,0
2016-08-06T01:04:31.720Z,0
2016-08-06T01:05:31.722Z,0
2016-08-06T01:06:31.727Z,0
2016-08-06T01:07:31.722Z,0
2016-08-06T01:08:31.739Z,0
2016-08-06T01:09:31.722Z,0
2016-08-06T01:10:31.739Z,0
2016-08-06T01:11:31.725Z,0
2016-08-06T01:12:31.727Z,0
2016-08-06T01:13:31.780Z,0
2016-08-06T01:14:31.805Z,0
2016-08-06T01:15:31.814Z,0
2016-08-06T01:16:31.726Z,0
2016-08-06T01:17:31.731Z,0
2016-08-06T01:18:31.784Z,0
2016-08-06T01:19:31.728Z,0
2016-08-06T01:20:31.793Z,0
2016-08-06T01:21:31.732Z,0
2016-08-06T01:22:31.734Z,0
2016-08-06T01:23:31.728Z,0
2016-08-06T01:24:31.740Z,0
2016-08-06T01:25:31.839Z,0
2016-08-06T01:26:31.734Z,0
2016-08-06T01:27:31.929Z,0
2016-08-06T01:28:31.735Z,0
2016-08-06T01:29:31.737Z,0
2016-08-06T01:30:31.767Z,0
2016-08-06T01:31:31.749Z,0
2016-08-06T01:32:31.740Z,0
2016-08-06T01:33:31.739Z,0
2016-08-06T01:34:31.744Z,0
2016-08-06T01:35:31.803Z,0
2016-08-06T01:36:31.750Z,0
2016-08-06T01:37:32.454Z,0
2016-08-06T01:38:31.744Z,0
2016-08-06T01:39:32.457Z,0
2016-08-06T01:40:31.832Z,0
2016-08-06T01:41:31.745Z,0
2016-08-06T01:42:31.737Z,0
2016-08-06T01:43:31.744Z,0
2016-08-06T01:44:32.455Z,0
2016-08-06T01:45:31.780Z,0
2016-08-06T01:46:31.748Z,0
2016-08-06T01:47:31.763Z,0
2016-08-06T01:48:31.819Z,0
2016-08-06T01:49:31.837Z,0
2016-08-06T01:50:31.743Z,0
2016-08-06T01:51:31.912Z,0
2016-08-06T01:52:31.745Z,0
2016-08-06T01:53:31.754Z,0
2016-08-06T01:54:31.755Z,0
2016-08-06T01:55:31.868Z,0
2016-08-06T01:56:31.752Z,0
2016-08-06T01:57:32.458Z,0
2016-08-06T01:58:31.767Z,0
2016-08-06T01:59:31.759Z,0
2016-08-06T02:00:31.782Z,0
2016-08-06T02:01:31.757Z,0
2016-08-06T02:02:31.754Z,0
2016-08-06T02:03:31.753Z,0
2016-08-06T02:04:31.757Z,0
2016-08-06T02:05:31.751Z,0
2016-08-06T02:06:31.752Z,0
2016-08-06T02:07:31.755Z,0
2016-08-06T02:08:31.759Z,0
2016-08-06T02:09:31.764Z,0
2016-08-06T02:10:31.836Z,0
2016-08-06T02:11:31.753Z,0
2016-08-06T02:12:31.764Z,0
2016-08-06T02:13:31.771Z,0
2016-08-06T02:14:31.757Z,0
2016-08-06T02:16:31.763Z,0
2016-08-06T02:17:31.757Z,0
2016-08-06T02:18:31.759Z,0
2016-08-06T02:19:32.463Z,0
2016-08-06T02:20:32.571Z,0
2016-08-06T02:21:31.808Z,0
2016-08-06T02:22:31.799Z,0
2016-08-06T02:23:31.775Z,0
2016-08-06T02:24:31.767Z,0
2016-08-06T02:25:31.877Z,0
2016-08-06T02:26:31.772Z,0
2016-08-06T02:27:31.764Z,0
2016-08-06T02:28:31.755Z,0
2016-08-06T02:29:31.760Z,0
2016-08-06T02:31:31.758Z,0
2016-08-06T02:32:31.754Z,0
2016-08-06T02:33:31.753Z,0
2016-08-06T02:34:32.472Z,0
2016-08-06T02:35:31.795Z,0
2016-08-06T02:36:31.764Z,0
2016-08-06T02:37:31.755Z,0
2016-08-06T02:38:31.765Z,0
2016-08-06T02:39:31.758Z,0
2016-08-06T02:40:31.758Z,0
2016-08-06T02:41:31.769Z,0
2016-08-06T02:42:31.758Z,0
2016-08-06T02:43:31.763Z,0
2016-08-06T02:44:31.770Z,0
2016-08-06T02:46:31.770Z,0
2016-08-06T02:47:31.765Z,0
2016-08-06T02:48:32.468Z,0
2016-08-06T02:49:31.759Z,0
2016-08-06T02:50:31.770Z,0
2016-08-06T02:51:31.987Z,0
2016-08-06T02:52:31.763Z,0
2016-08-06T02:53:31.767Z,0
2016-08-06T02:54:31.762Z,0
2016-08-06T02:55:31.846Z,0
2016-08-06T02:56:31.764Z,0
2016-08-06T02:57:31.763Z,0
2016-08-06T02:58:31.770Z,0
2016-08-06T02:59:31.766Z,0
2016-08-06T03:01:31.774Z,0
2016-08-06T03:02:31.786Z,0
2016-08-06T03:03:31.771Z,0
2016-08-06T03:04:31.774Z,0
2016-08-06T03:05:31.800Z,0
2016-08-06T03:06:31.765Z,0
2016-08-06T03:07:31.769Z,0
2016-08-06T03:08:31.771Z,0
2016-08-06T03:09:31.774Z,0
2016-08-06T03:10:31.771Z,0
2016-08-06T03:11:31.781Z,0
2016-08-06T03:12:31.766Z,0
2016-08-06T03:13:31.770Z,0
2016-08-06T03:14:31.780Z,0
2016-08-06T03:16:31.770Z,0
2016-08-06T03:17:31.775Z,0
2016-08-06T03:18:31.779Z,0
2016-08-06T03:19:31.771Z,0
2016-08-06T03:20:31.773Z,0
2016-08-06T03:21:37.764Z,0
2016-08-06T03:22:31.784Z,0
2016-08-06T03:23:31.773Z,0
2016-08-06T03:24:31.779Z,0
2016-08-06T03:25:31.779Z,0
2016-08-06T03:26:31.776Z,0
2016-08-06T03:27:31.777Z,0
2016-08-06T03:28:31.778Z,0
2016-08-06T03:29:31.777Z,4
2016-08-06T03:30:31.778Z,4
2016-08-06T03:31:31.779Z,4
2016-08-06T03:32:31.794Z,0
2016-08-06T03:33:31.780Z,4
2016-08-06T03:34:31.781Z,4
2016-08-06T03:35:31.849Z,4
2016-08-06T03:36:31.783Z,4
2016-08-06T03:37:31.779Z,8
2016-08-06T03:38:31.799Z,8
2016-08-06T03:39:31.791Z,12
2016-08-06T03:40:31.907Z,12
2016-08-06T03:41:32.504Z,12
2016-08-06T03:42:31.779Z,16
2016-08-06T03:43:31.787Z,16
2016-08-06T03:44:31.791Z,16
2016-08-06T03:45:31.818Z,20
2016-08-06T03:46:31.786Z,24
2016-08-06T03:47:31.801Z,32
2016-08-06T03:48:31.786Z,36
2016-08-06T03:49:32.505Z,40
2016-08-06T03:50:31.785Z,48
2016-08-06T03:51:31.841Z,56
2016-08-06T03:52:31.785Z,64
2016-08-06T03:53:31.787Z,72
2016-08-06T03:54:31.792Z,80
2016-08-06T03:55:31.792Z,92
2016-08-06T03:56:31.793Z,100
2016-08-06T03:57:31.789Z,116
2016-08-06T03:58:31.812Z,128
2016-08-06T03:59:31.798Z,140
2016-08-06T04:00:31.848Z,156
2016-08-06T04:01:31.791Z,172
2016-08-06T04:02:31.800Z,188
2016-08-06T04:03:32.512Z,204
2016-08-06T04:04:31.800Z,220
2016-08-06T04:05:31.794Z,240
2016-08-06T04:06:31.792Z,252
2016-08-06T04:07:31.794Z,272
2016-08-06T04:08:31.794Z,292
2016-08-06T04:09:31.810Z,312
2016-08-06T04:10:31.826Z,332
2016-08-06T04:11:31.800Z,352
2016-08-06T04:12:31.793Z,376
2016-08-06T04:13:31.799Z,396
2016-08-06T04:14:31.790Z,420
2016-08-06T04:15:31.834Z,444
2016-08-06T04:16:31.797Z,460
2016-08-06T04:17:31.814Z,488
2016-08-06T04:18:31.792Z,512
2016-08-06T04:19:31.805Z,540
2016-08-06T04:20:31.860Z,580
2016-08-06T04:21:31.807Z,616
2016-08-06T04:22:31.814Z,652
2016-08-06T04:23:31.810Z,692
2016-08-06T04:24:31.806Z,728
2016-08-06T04:25:31.825Z,764
2016-08-06T04:26:31.799Z,800
2016-08-06T04:27:31.799Z,840
2016-08-06T04:28:32.509Z,884
2016-08-06T04:29:31.812Z,928
2016-08-06T04:30:31.799Z,972
2016-08-06T04:31:31.811Z,1016
2016-08-06T04:32:31.808Z,1060
2016-08-06T04:33:31.800Z,1116
2016-08-06T04:34:31.803Z,1172
2016-08-06T04:35:31.852Z,1212
2016-08-06T04:36:31.802Z,1276
2016-08-06T04:37:31.803Z,1340
2016-08-06T04:38:31.803Z,1472
2016-08-06T04:39:33.227Z,1524
2016-08-06T04:40:31.849Z,1532
2016-08-06T04:41:31.808Z,1588
2016-08-06T04:42:31.817Z,1712
2016-08-06T04:43:32.539Z,1908
2016-08-06T04:44:31.804Z,1964
2016-08-06T04:45:31.805Z,2196
2016-08-06T04:46:31.811Z,2240
2016-08-06T04:47:31.822Z,2540
2016-08-06T04:48:32.518Z,2804
2016-08-06T04:49:31.824Z,2932
2016-08-06T04:50:31.891Z,3040
2016-08-06T04:51:31.953Z,3140
2016-08-06T04:52:31.807Z,3164
2016-08-06T04:53:31.810Z,3172
2016-08-06T04:54:31.811Z,3468
2016-08-06T04:55:31.811Z,3900
2016-08-06T04:56:31.818Z,4092
2016-08-06T04:57:31.812Z,4072
2016-08-06T04:58:31.816Z,4232
2016-08-06T04:59:31.823Z,4216
2016-08-06T05:00:31.843Z,4460
2016-08-06T05:01:31.834Z,4720
2016-08-06T05:02:31.823Z,4828
2016-08-06T05:03:31.818Z,4980
2016-08-06T05:04:31.833Z,5196
2016-08-06T05:05:31.859Z,5268
2016-08-06T05:06:31.843Z,5336
2016-08-06T05:07:31.834Z,3888
2016-08-06T05:08:31.829Z,5780
2016-08-06T05:09:31.830Z,4796
2016-08-06T05:10:31.839Z,6300
2016-08-06T05:11:31.839Z,6420
2016-08-06T05:12:31.836Z,4228
2016-08-06T05:13:31.840Z,4288
2016-08-06T05:14:32.556Z,4320
2016-08-06T05:15:31.977Z,4320
2016-08-06T05:16:31.858Z,4404
2016-08-06T05:17:31.861Z,4432
2016-08-06T05:18:31.857Z,4460
2016-08-06T05:19:31.858Z,4500
2016-08-06T05:20:31.861Z,4644
2016-08-06T05:21:31.876Z,4652
2016-08-06T05:22:31.879Z,4536
2016-08-06T05:23:31.867Z,6248
2016-08-06T05:24:31.871Z,5924
2016-08-06T05:25:31.962Z,5536
2016-08-06T05:26:31.877Z,6000
2016-08-06T05:27:31.881Z,5732
2016-08-06T05:28:31.882Z,5516
2016-08-06T05:29:31.880Z,5384
2016-08-06T05:30:31.925Z,5284
2016-08-06T05:31:31.920Z,5260
2016-08-06T05:32:31.893Z,5252
2016-08-06T05:33:31.889Z,5236
2016-08-06T05:34:31.894Z,4988
2016-08-06T05:35:32.634Z,4676
2016-08-06T05:36:31.906Z,4412
2016-08-06T05:37:31.905Z,4316
2016-08-06T05:38:32.610Z,4264
2016-08-06T05:39:31.924Z,4160
2016-08-06T05:40:31.954Z,3992
2016-08-06T05:41:31.927Z,3980
2016-08-06T05:42:31.929Z,4144
2016-08-06T05:43:31.931Z,4360
2016-08-06T05:44:31.935Z,4636
2016-08-06T05:45:31.986Z,4584
2016-08-06T05:46:31.952Z,4724
2016-08-06T05:47:31.935Z,7984
2016-08-06T05:48:31.934Z,8904
2016-08-06T05:49:31.941Z,9160
2016-08-06T05:50:32.049Z,7348
2016-08-06T05:51:32.144Z,6496
2016-08-06T05:52:31.934Z,6896
2016-08-06T05:53:31.949Z,6436
2016-08-06T05:54:31.941Z,5844
2016-08-06T05:55:31.976Z,5148
2016-08-06T05:56:31.951Z,5472
2016-08-06T05:57:31.946Z,5856
2016-08-06T05:58:31.959Z,6024
2016-08-06T05:59:31.979Z,6188
2016-08-06T06:00:31.954Z,5920
2016-08-06T06:01:31.985Z,6172
2016-08-06T06:02:31.961Z,6428
2016-08-06T06:03:31.964Z,6812
2016-08-06T06:04:31.967Z,7344
2016-08-06T06:05:31.994Z,8016
2016-08-06T06:06:31.996Z,8264
2016-08-06T06:07:31.978Z,8200
2016-08-06T06:08:32.007Z,8048
2016-08-06T06:09:31.992Z,11052
2016-08-06T06:10:32.036Z,10956
2016-08-06T06:11:31.989Z,7920
2016-08-06T06:12:32.002Z,8268
2016-08-06T06:13:32.002Z,9164
2016-08-06T06:14:32.015Z,11192
2016-08-06T06:15:32.085Z,7056
2016-08-06T06:17:32.004Z,8032
2016-08-06T06:18:32.009Z,8064
2016-08-06T06:19:32.011Z,6992
2016-08-06T06:20:32.024Z,9068
2016-08-06T06:21:32.018Z,8384
2016-08-06T06:22:32.022Z,7592
2016-08-06T06:23:32.025Z,7840
2016-08-06T06:24:32.034Z,6080
2016-08-06T06:25:32.043Z,12016
2016-08-06T06:26:32.074Z,11808
2016-08-06T06:27:32.050Z,10560
2016-08-06T06:28:32.074Z,13520
2016-08-06T06:29:32.050Z,13472
2016-08-06T06:30:32.060Z,13160
2016-08-06T06:32:32.063Z,14048
2016-08-06T06:33:32.774Z,12712
2016-08-06T06:34:32.077Z,12216
2016-08-06T06:35:32.189Z,13188
2016-08-06T06:36:32.086Z,10160
2016-08-06T06:37:32.089Z,9532
2016-08-06T06:38:32.106Z,11832
2016-08-06T06:39:32.810Z,10776
2016-08-06T06:40:32.110Z,10784
2016-08-06T06:41:32.115Z,10572
2016-08-06T06:42:32.127Z,12252
2016-08-06T06:43:32.128Z,9248
2016-08-06T06:44:32.127Z,10952
2016-08-06T06:45:32.159Z,10636
2016-08-06T06:46:32.186Z,12656
2016-08-06T06:47:32.158Z,11664
2016-08-06T06:48:32.148Z,11860
2016-08-06T06:49:32.171Z,11232
2016-08-06T06:50:32.211Z,13040
2016-08-06T06:51:32.225Z,11076
2016-08-06T06:52:32.179Z,11940
2016-08-06T06:53:32.192Z,14212
2016-08-06T06:54:32.178Z,14444
2016-08-06T06:55:32.188Z,13836
2016-08-06T06:56:32.200Z,13172
2016-08-06T06:57:32.194Z,13492
2016-08-06T06:58:32.200Z,12112
2016-08-06T06:59:32.208Z,10856
2016-08-06T07:00:32.317Z,13512
2016-08-06T07:01:32.217Z,9492
2016-08-06T07:02:32.226Z,10344
2016-08-06T07:03:32.942Z,12888
2016-08-06T07:04:32.247Z,13212
2016-08-06T07:05:32.967Z,13456
2016-08-06T07:06:32.256Z,14004
2016-08-06T07:07:32.272Z,11232
2016-08-06T07:08:32.276Z,11884
2016-08-06T07:09:32.269Z,6120
2016-08-06T07:10:32.288Z,11824
2016-08-06T07:11:32.281Z,12792
2016-08-06T07:12:32.290Z,11612
2016-08-06T07:13:32.294Z,13680
2016-08-06T07:14:32.314Z,12944
2016-08-06T07:15:32.374Z,12748
2016-08-06T07:16:32.313Z,13592
2016-08-06T07:17:32.325Z,13556
2016-08-06T07:18:32.342Z,13372
2016-08-06T07:19:33.044Z,12772
2016-08-06T07:20:32.346Z,12088
2016-08-06T07:21:32.353Z,12072
2016-08-06T07:22:32.358Z,13220
2016-08-06T07:23:32.364Z,13336
2016-08-06T07:24:32.370Z,9972
2016-08-06T07:25:32.387Z,13020
2016-08-06T07:26:33.094Z,13448
2016-08-06T07:27:32.396Z,13236
2016-08-06T07:28:32.402Z,12308
2016-08-06T07:29:32.424Z,13424
2016-08-06T07:30:32.559Z,12932
2016-08-06T07:31:32.432Z,12352
2016-08-06T07:32:32.435Z,11792
2016-08-06T07:33:32.443Z,12000
2016-08-06T07:34:32.446Z,12480
2016-08-06T07:35:32.465Z,12288
2016-08-06T07:36:32.460Z,12500
2016-08-06T07:37:32.493Z,12200
2016-08-06T07:38:32.483Z,12856
2016-08-06T07:39:33.192Z,13236
2016-08-06T07:40:32.684Z,12504
2016-08-06T07:41:32.499Z,10468
2016-08-06T07:42:32.507Z,10224
2016-08-06T07:43:33.222Z,9700
2016-08-06T07:44:32.521Z,9396
2016-08-06T07:45:32.537Z,8868
2016-08-06T07:46:32.542Z,9184
2016-08-06T07:47:32.552Z,8984
2016-08-06T07:48:32.552Z,9156
2016-08-06T07:49:32.578Z,8764
2016-08-06T07:50:32.619Z,9212
2016-08-06T07:51:32.609Z,9424
2016-08-06T07:52:32.570Z,9408
2016-08-06T07:53:32.598Z,8824
2016-08-06T07:54:32.594Z,8440
2016-08-06T07:55:32.588Z,9172
2016-08-06T07:56:32.591Z,9284
2016-08-06T07:57:32.622Z,9172
2016-08-06T07:58:32.641Z,10760
2016-08-06T07:59:32.617Z,11456
2016-08-06T08:00:32.620Z,11732
2016-08-06T08:01:32.621Z,11660
2016-08-06T08:02:32.625Z,11904
2016-08-06T08:03:32.628Z,11152
2016-08-06T08:04:32.640Z,11940
2016-08-06T08:05:32.644Z,11988
2016-08-06T08:06:32.648Z,11916
2016-08-06T08:07:32.652Z,11756
2016-08-06T08:08:32.672Z,10912
2016-08-06T08:09:32.679Z,10068
2016-08-06T08:10:32.684Z,11184
2016-08-06T08:11:32.699Z,11108
2016-08-06T08:12:32.698Z,10356
2016-08-06T08:13:32.702Z,11800
2016-08-06T08:14:32.707Z,11196
2016-08-06T08:15:32.709Z,11492
2016-08-06T08:16:32.711Z,11700
2016-08-06T08:17:32.729Z,11656
2016-08-06T08:18:32.732Z,10576
2016-08-06T08:19:32.734Z,10428
2016-08-06T08:20:32.758Z,11612
2016-08-06T08:21:33.467Z,11504
2016-08-06T08:22:32.781Z,11576
2016-08-06T08:23:32.770Z,10680
2016-08-06T08:24:32.792Z,11412
2016-08-06T08:25:32.806Z,11348
2016-08-06T08:26:32.793Z,11160
2016-08-06T08:27:32.805Z,12036
2016-08-06T08:28:32.802Z,12136
2016-08-06T08:29:32.813Z,12096
2016-08-06T08:30:32.855Z,12456
2016-08-06T08:31:32.821Z,12592
2016-08-06T08:32:32.830Z,12720
2016-08-06T08:33:32.848Z,13076
2016-08-06T08:34:32.858Z,12812
2016-08-06T08:35:33.575Z,10544
2016-08-06T08:36:32.868Z,11904
2016-08-06T08:37:32.872Z,11736
2016-08-06T08:38:32.886Z,11316
2016-08-06T08:39:32.893Z,11616
2016-08-06T08:40:32.958Z,11028
2016-08-06T08:41:32.917Z,11584
2016-08-06T08:42:32.905Z,9148
2016-08-06T08:43:32.918Z,10900
2016-08-06T08:44:32.922Z,9860
2016-08-06T08:45:33.016Z,10712
2016-08-06T08:46:32.950Z,9624
2016-08-06T08:47:32.972Z,9528
2016-08-06T08:48:32.953Z,7772
2016-08-06T08:49:32.967Z,10164
2016-08-06T08:50:32.977Z,10916
2016-08-06T08:51:33.046Z,11500
2016-08-06T08:52:32.995Z,11884
2016-08-06T08:53:32.992Z,8620
2016-08-06T08:54:33.019Z,9192
2016-08-06T08:55:33.170Z,11340
2016-08-06T08:56:33.024Z,11508
2016-08-06T08:57:33.036Z,12140
2016-08-06T08:58:33.026Z,12152
2016-08-06T08:59:33.038Z,11688
2016-08-06T09:00:33.053Z,9228
2016-08-06T09:01:33.092Z,11340
2016-08-06T09:02:33.066Z,11244
2016-08-06T09:03:33.094Z,10924
2016-08-06T09:04:33.088Z,8752
2016-08-06T09:05:33.808Z,8116
2016-08-06T09:06:33.095Z,11120
2016-08-06T09:07:33.093Z,9156
2016-08-06T09:08:33.111Z,9544
2016-08-06T09:09:33.105Z,8180
2016-08-06T09:10:33.151Z,8128
2016-08-06T09:11:33.122Z,10032
2016-08-06T09:12:33.128Z,10788
2016-08-06T09:13:33.866Z,8364
2016-08-06T09:14:33.128Z,10356
2016-08-06T09:15:33.311Z,10636
2016-08-06T09:16:33.145Z,10772
2016-08-06T09:17:33.164Z,10112
2016-08-06T09:18:33.170Z,11644
2016-08-06T09:19:33.186Z,12232
2016-08-06T09:20:33.181Z,12228
2016-08-06T09:21:33.180Z,11996
2016-08-06T09:22:33.184Z,11648
2016-08-06T09:23:33.186Z,11572
2016-08-06T09:24:33.198Z,10840
2016-08-06T09:25:33.265Z,8240
2016-08-06T09:26:33.201Z,9876
2016-08-06T09:27:33.199Z,7908
2016-08-06T09:28:33.220Z,7896
2016-08-06T09:29:33.219Z,7760
2016-08-06T09:30:33.287Z,7604
2016-08-06T09:31:33.232Z,8712
2016-08-06T09:32:33.274Z,8328
2016-08-06T09:33:33.944Z,10528
2016-08-06T09:34:33.242Z,11496
2016-08-06T09:35:33.308Z,11736
2016-08-06T09:36:33.245Z,11816
2016-08-06T09:37:33.261Z,11792
2016-08-06T09:38:33.260Z,11688
2016-08-06T09:39:33.974Z,11572
2016-08-06T09:40:33.316Z,10380
2016-08-06T09:41:33.269Z,9656
2016-08-06T09:42:33.275Z,9088
2016-08-06T09:43:33.282Z,8408
2016-08-06T09:44:33.299Z,8308
2016-08-06T09:45:33.363Z,8712
2016-08-06T09:46:33.301Z,11124
2016-08-06T09:47:33.329Z,10384
2016-08-06T09:48:33.302Z,10876
2016-08-06T09:49:33.308Z,9852
2016-08-06T09:50:33.329Z,9628
2016-08-06T09:51:33.476Z,9948
2016-08-06T09:52:33.325Z,10128
2016-08-06T09:53:33.328Z,8872
2016-08-06T09:54:33.338Z,9036
2016-08-06T09:55:33.467Z,9788
2016-08-06T09:56:33.358Z,11088
2016-08-06T09:57:33.355Z,9244
2016-08-06T09:58:33.355Z,9040
2016-08-06T09:59:34.072Z,9008
2016-08-06T10:00:33.419Z,10976
2016-08-06T10:01:33.376Z,9972
2016-08-06T10:02:33.417Z,11072
2016-08-06T10:03:33.380Z,11156
2016-08-06T10:04:33.394Z,11172
2016-08-06T10:05:33.430Z,11484
2016-08-06T10:06:33.391Z,11984
2016-08-06T10:07:33.395Z,12108
2016-08-06T10:08:33.407Z,12080
2016-08-06T10:09:33.415Z,11912
2016-08-06T10:10:33.503Z,11392
2016-08-06T10:11:33.422Z,10888
2016-08-06T10:12:33.421Z,10144
2016-08-06T10:13:33.423Z,9624
2016-08-06T10:14:34.150Z,9620
2016-08-06T10:15:33.456Z,9792
2016-08-06T10:16:33.459Z,10544
2016-08-06T10:17:33.490Z,11192
2016-08-06T10:18:34.180Z,9460
2016-08-06T10:19:33.452Z,9280
2016-08-06T10:20:33.550Z,9232
2016-08-06T10:21:34.203Z,9324
2016-08-06T10:22:33.490Z,9488
2016-08-06T10:23:33.482Z,9508
2016-08-06T10:24:33.496Z,9508
2016-08-06T10:25:33.518Z,9552
2016-08-06T10:26:33.499Z,9672
2016-08-06T10:27:33.510Z,9832
2016-08-06T10:28:33.506Z,9732
2016-08-06T10:29:33.531Z,9900
2016-08-06T10:30:33.631Z,11024
2016-08-06T10:31:33.529Z,12264
2016-08-06T10:33:34.235Z,12252
2016-08-06T10:34:33.534Z,12616
2016-08-06T10:35:33.563Z,12368
2016-08-06T10:36:33.554Z,12108
2016-08-06T10:37:33.564Z,11728
2016-08-06T10:38:33.565Z,11252
2016-08-06T10:39:33.596Z,9912
2016-08-06T10:40:33.673Z,9240
2016-08-06T10:41:33.593Z,8836
2016-08-06T10:42:33.590Z,8700
2016-08-06T10:43:33.597Z,8644
2016-08-06T10:44:33.596Z,8672
2016-08-06T10:45:33.709Z,8708
2016-08-06T10:46:33.594Z,8700
2016-08-06T10:48:33.624Z,8808
2016-08-06T10:49:33.605Z,9028
2016-08-06T10:50:34.391Z,9204
2016-08-06T10:51:34.416Z,9344
2016-08-06T10:52:33.632Z,9416
2016-08-06T10:53:33.627Z,9444
2016-08-06T10:54:33.638Z,9612
2016-08-06T10:55:33.717Z,9844
2016-08-06T10:56:33.653Z,10092
2016-08-06T10:57:33.643Z,10088
2016-08-06T10:58:34.361Z,9896
2016-08-06T10:59:33.650Z,9576
2016-08-06T11:00:33.772Z,9340
2016-08-06T11:01:33.660Z,9880
2016-08-06T11:02:33.670Z,10184
2016-08-06T11:03:33.666Z,9132
2016-08-06T11:04:33.669Z,8944
2016-08-06T11:05:33.764Z,9940
2016-08-06T11:06:33.676Z,8808
2016-08-06T11:07:33.686Z,8984
2016-08-06T11:08:33.710Z,9104
2016-08-06T11:09:33.708Z,9176
2016-08-06T11:10:33.716Z,9292
2016-08-06T11:11:34.423Z,9312
2016-08-06T11:12:33.710Z,9312
2016-08-06T11:13:33.710Z,9396
2016-08-06T11:14:33.723Z,9484
2016-08-06T11:15:33.797Z,9532
2016-08-06T11:16:33.727Z,9660
2016-08-06T11:17:34.459Z,9768
2016-08-06T11:18:33.743Z,10428
2016-08-06T11:19:33.744Z,10548
2016-08-06T11:20:33.832Z,10720
2016-08-06T11:21:33.748Z,11336
2016-08-06T11:22:33.775Z,11672
2016-08-06T11:23:33.775Z,11780
2016-08-06T11:24:33.783Z,11624
2016-08-06T11:25:33.823Z,11144
2016-08-06T11:26:33.775Z,11144
2016-08-06T11:27:34.501Z,10580
2016-08-06T11:28:33.783Z,10184
2016-08-06T11:29:33.790Z,10056
2016-08-06T11:30:33.855Z,10948
2016-08-06T11:31:33.829Z,9764
2016-08-06T11:32:33.819Z,9320
2016-08-06T11:33:33.823Z,9868
2016-08-06T11:34:33.816Z,8864
2016-08-06T11:35:33.918Z,8684
2016-08-06T11:36:33.837Z,8452
2016-08-06T11:37:34.552Z,8304
2016-08-06T11:38:33.836Z,8212
2016-08-06T11:39:33.837Z,8284
2016-08-06T11:40:33.956Z,8340
2016-08-06T11:41:34.567Z,8384
2016-08-06T11:42:33.851Z,8384
2016-08-06T11:43:33.857Z,8332
2016-08-06T11:44:33.878Z,8472
2016-08-06T11:45:33.927Z,8808
2016-08-06T11:46:33.873Z,9256
2016-08-06T11:47:33.884Z,9608
2016-08-06T11:48:33.900Z,9760
2016-08-06T11:49:33.898Z,9864
2016-08-06T11:50:33.923Z,9988
2016-08-06T11:51:33.903Z,9900
2016-08-06T11:52:33.918Z,9872
2016-08-06T11:53:33.904Z,9852
2016-08-06T11:54:33.912Z,10008
2016-08-06T11:55:34.042Z,10124
2016-08-06T11:56:33.917Z,10796
2016-08-06T11:57:33.925Z,11188
2016-08-06T11:58:33.935Z,11240
2016-08-06T11:59:33.936Z,11392
2016-08-06T12:00:33.962Z,12616
2016-08-06T12:01:33.947Z,12944
2016-08-06T12:02:33.956Z,12220
2016-08-06T12:03:33.953Z,11936
2016-08-06T12:04:33.962Z,12540
2016-08-06T12:05:33.981Z,11444
2016-08-06T12:06:33.966Z,11236
2016-08-06T12:07:33.974Z,10908
2016-08-06T12:08:33.984Z,11316
2016-08-06T12:09:33.991Z,11944
2016-08-06T12:10:34.031Z,12028
2016-08-06T12:11:34.000Z,11728
2016-08-06T12:12:34.002Z,11516
2016-08-06T12:13:34.004Z,11348
2016-08-06T12:14:34.718Z,11060
2016-08-06T12:15:34.117Z,10872
2016-08-06T12:16:34.022Z,10820
2016-08-06T12:17:34.022Z,9952
2016-08-06T12:18:34.043Z,10056
2016-08-06T12:19:34.035Z,10028
2016-08-06T12:20:34.051Z,9848
2016-08-06T12:21:34.060Z,9408
2016-08-06T12:22:34.758Z,8924
2016-08-06T12:23:34.052Z,8548
2016-08-06T12:24:34.059Z,8232
2016-08-06T12:25:34.114Z,7924
2016-08-06T12:26:34.075Z,7704
2016-08-06T12:27:34.083Z,7580
2016-08-06T12:28:34.078Z,7444
2016-08-06T12:29:34.791Z,7396
2016-08-06T12:30:34.097Z,7548
2016-08-06T12:31:34.093Z,7964
2016-08-06T12:32:34.113Z,8316
2016-08-06T12:33:34.118Z,8612
2016-08-06T12:34:34.125Z,9936
2016-08-06T12:35:34.117Z,10336
2016-08-06T12:36:34.134Z,10176
2016-08-06T12:37:34.133Z,9812
2016-08-06T12:38:34.127Z,9792
2016-08-06T12:39:34.138Z,10012
2016-08-06T12:40:34.226Z,10916
2016-08-06T12:41:34.146Z,10576
2016-08-06T12:42:34.148Z,10040
2016-08-06T12:43:34.151Z,9532
2016-08-06T12:44:34.169Z,9292
2016-08-06T12:45:34.159Z,9288
2016-08-06T12:46:34.196Z,9232
2016-08-06T12:47:34.215Z,9000
2016-08-06T12:48:34.197Z,8780
2016-08-06T12:49:34.191Z,8736
2016-08-06T12:50:34.237Z,8904
2016-08-06T12:51:34.204Z,9244
2016-08-06T12:52:34.199Z,9412
2016-08-06T12:53:34.202Z,9880
2016-08-06T12:54:34.205Z,10168
2016-08-06T12:55:34.255Z,9148
2016-08-06T12:56:34.924Z,10164
2016-08-06T12:57:34.227Z,9988
2016-08-06T12:58:34.232Z,9780
2016-08-06T12:59:34.234Z,9908
2016-08-06T13:00:34.306Z,8936
2016-08-06T13:01:34.246Z,8084
2016-08-06T13:02:34.257Z,8028
2016-08-06T13:03:34.262Z,7936
2016-08-06T13:04:34.261Z,8400
2016-08-06T13:05:34.357Z,8732
2016-08-06T13:06:34.305Z,8988
2016-08-06T13:07:34.274Z,8704
2016-08-06T13:08:34.299Z,8292
2016-08-06T13:09:34.290Z,8144
2016-08-06T13:10:34.369Z,8956
2016-08-06T13:11:34.291Z,7660
2016-08-06T13:12:34.305Z,8688
2016-08-06T13:13:35.024Z,7528
2016-08-06T13:14:34.308Z,7908
2016-08-06T13:15:34.323Z,7788
2016-08-06T13:16:34.329Z,8128
2016-08-06T13:17:34.323Z,8224
2016-08-06T13:18:34.345Z,8320
2016-08-06T13:19:34.348Z,8436
2016-08-06T13:20:34.345Z,8648
2016-08-06T13:21:34.341Z,9664
2016-08-06T13:22:34.362Z,8932
2016-08-06T13:23:34.370Z,9140
2016-08-06T13:24:34.382Z,9220
2016-08-06T13:25:34.378Z,9072
2016-08-06T13:26:34.361Z,8848
2016-08-06T13:27:34.371Z,8868
2016-08-06T13:28:34.385Z,8980
2016-08-06T13:29:35.096Z,8988
2016-08-06T13:30:34.386Z,9056
2016-08-06T13:31:34.389Z,9232
2016-08-06T13:32:34.393Z,9428
2016-08-06T13:33:34.449Z,9412
2016-08-06T13:34:34.405Z,9332
2016-08-06T13:35:34.474Z,9192
2016-08-06T13:36:34.447Z,9060
2016-08-06T13:37:34.431Z,8948
2016-08-06T13:38:34.439Z,8932
2016-08-06T13:39:34.432Z,8912
2016-08-06T13:40:34.550Z,8876
2016-08-06T13:41:34.455Z,8876
2016-08-06T13:42:35.153Z,8916
2016-08-06T13:43:34.450Z,9012